sensor_id;sensor_type;location;lat;lon;timestamp;pressure;altitude;pressure_sealevel;temperature;humidity
15382;BME280;7789;51.364;12.358;2023-08-17T00:04:49;100558.84;;;23.76;100.00
15382;BME280;7789;51.364;12.358;2023-08-17T00:09:52;100555.53;;;23.74;100.00
15382;BME280;7789;51.364;12.358;2023-08-17T00:14:56;100547.50;;;23.74;100.00
15382;BME280;7789;51.364;12.358;2023-08-17T00:20:01;100551.44;;;23.72;100.00
15382;BME280;7789;51.364;12.358;2023-08-17T00:25:07;100547.91;;;23.71;100.00
15382;BME280;7789;51.364;12.358;2023-08-17T00:30:11;100533.53;;;23.66;100.00
15382;BME280;7789;51.364;12.358;2023-08-17T00:35:16;100528.00;;;23.61;100.00
15382;BME280;7789;51.364;12.358;2023-08-17T00:40:20;100521.00;;;23.53;100.00
15382;BME280;7789;51.364;12.358;2023-08-17T00:45:23;100509.28;;;23.48;100.00
15382;BME280;7789;51.364;12.358;2023-08-17T00:50:28;100502.53;;;23.45;100.00
15382;BME280;7789;51.364;12.358;2023-08-17T00:55:33;100511.75;;;23.36;100.00
15382;BME280;7789;51.364;12.358;2023-08-17T01:00:37;100520.78;;;23.29;100.00
15382;BME280;7789;51.364;12.358;2023-08-17T01:05:42;100531.06;;;23.25;100.00
15382;BME280;7789;51.364;12.358;2023-08-17T01:10:52;100538.41;;;23.23;100.00
15382;BME280;7789;51.364;12.358;2023-08-17T01:15:56;100535.53;;;23.18;100.00
15382;BME280;7789;51.364;12.358;2023-08-17T01:21:06;100522.63;;;23.15;100.00
15382;BME280;7789;51.364;12.358;2023-08-17T01:26:11;100518.06;;;23.09;100.00
15382;BME280;7789;51.364;12.358;2023-08-17T01:31:20;100519.47;;;23.05;100.00
15382;BME280;7789;51.364;12.358;2023-08-17T01:36:30;100514.94;;;22.99;100.00
15382;BME280;7789;51.364;12.358;2023-08-17T01:41:37;100507.53;;;22.95;100.00
15382;BME280;7789;51.364;12.358;2023-08-17T01:46:41;100509.19;;;22.89;100.00
15382;BME280;7789;51.364;12.358;2023-08-17T01:51:45;100511.03;;;22.89;100.00
15382;BME280;7789;51.364;12.358;2023-08-17T01:56:50;100543.03;;;22.89;100.00
15382;BME280;7789;51.364;12.358;2023-08-17T02:01:53;100575.22;;;22.87;100.00
15382;BME280;7789;51.364;12.358;2023-08-17T02:06:57;100615.25;;;22.94;100.00
15382;BME280;7789;51.364;12.358;2023-08-17T02:12:02;100612.19;;;22.97;100.00
15382;BME280;7789;51.364;12.358;2023-08-17T02:17:05;100626.41;;;23.04;100.00
15382;BME280;7789;51.364;12.358;2023-08-17T02:22:10;100638.31;;;23.08;100.00
15382;BME280;7789;51.364;12.358;2023-08-17T02:27:15;100633.81;;;23.08;100.00
15382;BME280;7789;51.364;12.358;2023-08-17T02:32:18;100644.66;;;23.07;100.00
15382;BME280;7789;51.364;12.358;2023-08-17T02:37:21;100649.38;;;23.05;100.00
15382;BME280;7789;51.364;12.358;2023-08-17T02:42:26;100664.16;;;23.01;100.00
15382;BME280;7789;51.364;12.358;2023-08-17T02:47:32;100669.00;;;22.91;100.00
15382;BME280;7789;51.364;12.358;2023-08-17T02:52:36;100663.84;;;22.83;100.00
15382;BME280;7789;51.364;12.358;2023-08-17T02:57:40;100657.00;;;22.74;100.00
15382;BME280;7789;51.364;12.358;2023-08-17T03:02:44;100653.22;;;22.56;100.00
15382;BME280;7789;51.364;12.358;2023-08-17T03:07:47;100648.53;;;22.37;100.00
15382;BME280;7789;51.364;12.358;2023-08-17T03:12:52;100646.16;;;22.21;100.00
15382;BME280;7789;51.364;12.358;2023-08-17T03:17:55;100631.75;;;21.88;100.00
15382;BME280;7789;51.364;12.358;2023-08-17T03:22:59;100645.75;;;21.75;100.00
15382;BME280;7789;51.364;12.358;2023-08-17T03:28:04;100626.00;;;21.63;100.00
15382;BME280;7789;51.364;12.358;2023-08-17T03:33:10;100604.69;;;21.49;100.00
15382;BME280;7789;51.364;12.358;2023-08-17T03:38:13;100590.84;;;21.32;100.00
15382;BME280;7789;51.364;12.358;2023-08-17T03:43:18;100570.66;;;21.23;100.00
15382;BME280;7789;51.364;12.358;2023-08-17T03:48:21;100567.69;;;21.12;100.00
15382;BME280;7789;51.364;12.358;2023-08-17T03:53:25;100575.97;;;21.02;100.00
15382;BME280;7789;51.364;12.358;2023-08-17T03:58:30;100588.63;;;21.00;100.00
15382;BME280;7789;51.364;12.358;2023-08-17T04:03:36;100594.13;;;20.99;100.00
15382;BME280;7789;51.364;12.358;2023-08-17T04:08:40;100642.28;;;21.04;100.00
15382;BME280;7789;51.364;12.358;2023-08-17T04:13:44;100705.72;;;21.07;100.00
15382;BME280;7789;51.364;12.358;2023-08-17T04:18:48;100708.53;;;21.05;100.00
15382;BME280;7789;51.364;12.358;2023-08-17T04:23:51;100665.81;;;21.07;100.00
15382;BME280;7789;51.364;12.358;2023-08-17T04:28:57;100660.22;;;21.02;100.00
15382;BME280;7789;51.364;12.358;2023-08-17T04:34:00;100662.63;;;20.97;100.00
15382;BME280;7789;51.364;12.358;2023-08-17T04:39:04;100652.81;;;20.97;100.00
15382;BME280;7789;51.364;12.358;2023-08-17T04:44:09;100636.66;;;20.99;100.00
15382;BME280;7789;51.364;12.358;2023-08-17T04:49:13;100633.38;;;20.97;100.00
15382;BME280;7789;51.364;12.358;2023-08-17T04:54:16;100599.00;;;20.95;100.00
15382;BME280;7789;51.364;12.358;2023-08-17T04:59:21;100590.38;;;20.93;100.00
15382;BME280;7789;51.364;12.358;2023-08-17T05:04:26;100583.34;;;20.86;100.00
15382;BME280;7789;51.364;12.358;2023-08-17T05:09:30;100587.44;;;20.88;100.00
15382;BME280;7789;51.364;12.358;2023-08-17T05:14:45;100567.41;;;20.86;100.00
15382;BME280;7789;51.364;12.358;2023-08-17T05:19:48;100554.63;;;20.81;100.00
15382;BME280;7789;51.364;12.358;2023-08-17T05:24:52;100542.13;;;20.82;100.00
15382;BME280;7789;51.364;12.358;2023-08-17T05:29:57;100539.59;;;20.88;100.00
15382;BME280;7789;51.364;12.358;2023-08-17T05:35:00;100532.31;;;20.97;100.00
15382;BME280;7789;51.364;12.358;2023-08-17T05:40:05;100531.88;;;20.93;100.00
15382;BME280;7789;51.364;12.358;2023-08-17T05:45:12;100528.28;;;21.01;100.00
15382;BME280;7789;51.364;12.358;2023-08-17T05:50:15;100540.22;;;21.05;100.00
15382;BME280;7789;51.364;12.358;2023-08-17T05:55:19;100534.50;;;21.08;100.00
15382;BME280;7789;51.364;12.358;2023-08-17T06:00:23;100536.78;;;21.11;100.00
15382;BME280;7789;51.364;12.358;2023-08-17T06:05:27;100530.28;;;21.13;100.00
15382;BME280;7789;51.364;12.358;2023-08-17T06:10:30;100518.16;;;21.11;100.00
15382;BME280;7789;51.364;12.358;2023-08-17T06:15:35;100523.56;;;21.17;100.00
15382;BME280;7789;51.364;12.358;2023-08-17T06:20:38;100502.34;;;21.24;100.00
15382;BME280;7789;51.364;12.358;2023-08-17T06:25:41;100505.06;;;21.30;100.00
15382;BME280;7789;51.364;12.358;2023-08-17T06:30:46;100506.56;;;21.39;100.00
15382;BME280;7789;51.364;12.358;2023-08-17T06:35:50;100511.56;;;21.49;100.00
15382;BME280;7789;51.364;12.358;2023-08-17T06:40:53;100514.00;;;21.65;100.00
15382;BME280;7789;51.364;12.358;2023-08-17T06:45:57;100525.38;;;21.80;100.00
15382;BME280;7789;51.364;12.358;2023-08-17T06:51:02;100523.09;;;22.04;100.00
15382;BME280;7789;51.364;12.358;2023-08-17T06:56:08;100537.06;;;22.40;100.00
15382;BME280;7789;51.364;12.358;2023-08-17T07:01:16;100561.50;;;23.96;100.00
15382;BME280;7789;51.364;12.358;2023-08-17T07:06:19;100562.03;;;24.63;100.00
15382;BME280;7789;51.364;12.358;2023-08-17T07:11:28;100590.66;;;24.17;100.00
15382;BME280;7789;51.364;12.358;2023-08-17T07:16:43;100587.81;;;24.18;100.00
15382;BME280;7789;51.364;12.358;2023-08-17T07:21:50;100580.81;;;24.17;100.00
15382;BME280;7789;51.364;12.358;2023-08-17T07:26:57;100574.69;;;23.91;100.00
15382;BME280;7789;51.364;12.358;2023-08-17T07:32:07;100555.94;;;23.71;100.00
15382;BME280;7789;51.364;12.358;2023-08-17T07:37:11;100561.28;;;23.58;100.00
15382;BME280;7789;51.364;12.358;2023-08-17T07:42:18;100567.44;;;23.52;100.00
15382;BME280;7789;51.364;12.358;2023-08-17T07:47:23;100553.03;;;23.34;100.00
15382;BME280;7789;51.364;12.358;2023-08-17T07:52:29;100581.16;;;23.43;100.00
15382;BME280;7789;51.364;12.358;2023-08-17T07:57:35;100580.97;;;23.38;100.00
15382;BME280;7789;51.364;12.358;2023-08-17T08:02:46;100569.06;;;23.34;100.00
15382;BME280;7789;51.364;12.358;2023-08-17T08:07:53;100559.41;;;23.33;100.00
15382;BME280;7789;51.364;12.358;2023-08-17T08:12:59;100553.84;;;23.34;100.00
15382;BME280;7789;51.364;12.358;2023-08-17T08:18:07;100549.56;;;23.46;100.00
15382;BME280;7789;51.364;12.358;2023-08-17T08:23:12;100573.78;;;23.45;100.00
15382;BME280;7789;51.364;12.358;2023-08-17T08:28:16;100565.41;;;24.06;100.00
15382;BME280;7789;51.364;12.358;2023-08-17T08:33:21;100566.75;;;24.48;100.00
15382;BME280;7789;51.364;12.358;2023-08-17T08:38:31;100559.94;;;24.71;100.00
15382;BME280;7789;51.364;12.358;2023-08-17T08:43:37;100565.75;;;25.05;100.00
15382;BME280;7789;51.364;12.358;2023-08-17T08:48:45;100563.66;;;25.20;100.00
15382;BME280;7789;51.364;12.358;2023-08-17T08:53:58;100564.97;;;24.92;100.00
15382;BME280;7789;51.364;12.358;2023-08-17T08:59:04;100561.66;;;25.03;100.00
15382;BME280;7789;51.364;12.358;2023-08-17T09:04:14;100559.25;;;25.32;100.00
15382;BME280;7789;51.364;12.358;2023-08-17T09:09:19;100551.59;;;25.36;100.00
15382;BME280;7789;51.364;12.358;2023-08-17T09:14:30;100570.53;;;25.65;100.00
15382;BME280;7789;51.364;12.358;2023-08-17T09:19:38;100570.59;;;25.83;100.00
15382;BME280;7789;51.364;12.358;2023-08-17T09:24:43;100569.41;;;25.86;100.00
15382;BME280;7789;51.364;12.358;2023-08-17T09:29:50;100565.63;;;25.93;100.00
15382;BME280;7789;51.364;12.358;2023-08-17T09:35:13;100555.47;;;26.20;100.00
15382;BME280;7789;51.364;12.358;2023-08-17T09:40:16;100550.13;;;26.38;100.00
15382;BME280;7789;51.364;12.358;2023-08-17T09:45:24;100552.00;;;26.55;100.00
15382;BME280;7789;51.364;12.358;2023-08-17T09:50:31;100544.13;;;26.60;100.00
15382;BME280;7789;51.364;12.358;2023-08-17T09:55:41;100546.41;;;26.74;100.00
15382;BME280;7789;51.364;12.358;2023-08-17T10:00:49;100544.69;;;26.80;100.00
15382;BME280;7789;51.364;12.358;2023-08-17T10:06:01;100538.66;;;26.84;100.00
15382;BME280;7789;51.364;12.358;2023-08-17T10:11:10;100539.47;;;26.85;100.00
15382;BME280;7789;51.364;12.358;2023-08-17T10:16:22;100525.69;;;26.81;100.00
15382;BME280;7789;51.364;12.358;2023-08-17T10:21:45;100534.34;;;26.83;100.00
15382;BME280;7789;51.364;12.358;2023-08-17T10:26:52;100530.66;;;26.96;100.00
15382;BME280;7789;51.364;12.358;2023-08-17T10:32:05;100523.72;;;26.88;100.00
15382;BME280;7789;51.364;12.358;2023-08-17T10:37:13;100522.22;;;26.92;100.00
15382;BME280;7789;51.364;12.358;2023-08-17T10:42:30;100520.28;;;26.99;100.00
15382;BME280;7789;51.364;12.358;2023-08-17T10:47:37;100524.91;;;26.92;100.00
15382;BME280;7789;51.364;12.358;2023-08-17T10:52:49;100512.22;;;26.99;100.00
15382;BME280;7789;51.364;12.358;2023-08-17T10:57:55;100503.19;;;27.12;100.00
15382;BME280;7789;51.364;12.358;2023-08-17T11:03:03;100503.94;;;27.30;100.00
15382;BME280;7789;51.364;12.358;2023-08-17T11:08:12;100502.53;;;27.28;100.00
15382;BME280;7789;51.364;12.358;2023-08-17T11:13:32;100496.50;;;27.32;100.00
15382;BME280;7789;51.364;12.358;2023-08-17T11:18:40;100502.09;;;27.42;100.00
15382;BME280;7789;51.364;12.358;2023-08-17T11:23:50;100502.34;;;27.52;100.00
15382;BME280;7789;51.364;12.358;2023-08-17T11:28:59;100497.56;;;27.66;100.00
15382;BME280;7789;51.364;12.358;2023-08-17T11:34:07;100494.13;;;27.88;100.00
15382;BME280;7789;51.364;12.358;2023-08-17T11:39:16;100492.22;;;27.89;100.00
15382;BME280;7789;51.364;12.358;2023-08-17T11:44:25;100492.94;;;27.84;100.00
15382;BME280;7789;51.364;12.358;2023-08-17T11:49:35;100484.16;;;27.89;100.00
15382;BME280;7789;51.364;12.358;2023-08-17T11:54:42;100484.03;;;28.07;100.00
15382;BME280;7789;51.364;12.358;2023-08-17T11:59:57;100473.84;;;28.20;100.00
15382;BME280;7789;51.364;12.358;2023-08-17T12:05:07;100476.66;;;28.14;100.00
15382;BME280;7789;51.364;12.358;2023-08-17T12:10:19;100471.25;;;28.25;100.00
15382;BME280;7789;51.364;12.358;2023-08-17T12:15:30;100470.91;;;28.33;100.00
15382;BME280;7789;51.364;12.358;2023-08-17T12:20:39;100465.09;;;28.36;100.00
15382;BME280;7789;51.364;12.358;2023-08-17T12:25:52;100464.47;;;28.46;100.00
15382;BME280;7789;51.364;12.358;2023-08-17T12:31:01;100459.69;;;28.64;100.00
15382;BME280;7789;51.364;12.358;2023-08-17T12:36:08;100439.91;;;28.70;100.00
15382;BME280;7789;51.364;12.358;2023-08-17T12:41:17;100441.22;;;28.68;100.00
15382;BME280;7789;51.364;12.358;2023-08-17T12:46:22;100430.72;;;28.55;100.00
15382;BME280;7789;51.364;12.358;2023-08-17T12:51:38;100420.88;;;28.60;100.00
15382;BME280;7789;51.364;12.358;2023-08-17T12:56:50;100424.00;;;28.69;100.00
15382;BME280;7789;51.364;12.358;2023-08-17T13:02:00;100417.00;;;28.84;100.00
15382;BME280;7789;51.364;12.358;2023-08-17T13:07:05;100426.13;;;28.94;100.00
15382;BME280;7789;51.364;12.358;2023-08-17T13:12:14;100427.50;;;28.97;100.00
15382;BME280;7789;51.364;12.358;2023-08-17T13:17:19;100422.59;;;28.94;100.00
15382;BME280;7789;51.364;12.358;2023-08-17T13:22:29;100416.06;;;28.90;100.00
15382;BME280;7789;51.364;12.358;2023-08-17T13:27:35;100420.00;;;28.99;100.00
15382;BME280;7789;51.364;12.358;2023-08-17T13:32:40;100409.97;;;29.11;100.00
15382;BME280;7789;51.364;12.358;2023-08-17T13:37:56;100412.56;;;29.22;100.00
15382;BME280;7789;51.364;12.358;2023-08-17T13:43:06;100411.25;;;29.08;100.00
15382;BME280;7789;51.364;12.358;2023-08-17T13:48:26;100405.31;;;29.06;100.00
15382;BME280;7789;51.364;12.358;2023-08-17T13:53:31;100406.63;;;29.04;100.00
15382;BME280;7789;51.364;12.358;2023-08-17T13:58:39;100401.88;;;28.94;100.00
15382;BME280;7789;51.364;12.358;2023-08-17T14:03:46;100385.50;;;28.84;100.00
15382;BME280;7789;51.364;12.358;2023-08-17T14:08:54;100380.19;;;28.73;100.00
15382;BME280;7789;51.364;12.358;2023-08-17T14:14:01;100378.72;;;28.66;100.00
15382;BME280;7789;51.364;12.358;2023-08-17T14:19:06;100379.78;;;28.65;100.00
15382;BME280;7789;51.364;12.358;2023-08-17T14:24:13;100374.19;;;28.55;100.00
15382;BME280;7789;51.364;12.358;2023-08-17T14:29:25;100386.94;;;28.59;100.00
15382;BME280;7789;51.364;12.358;2023-08-17T14:34:40;100403.88;;;28.60;100.00
15382;BME280;7789;51.364;12.358;2023-08-17T14:39:47;100421.44;;;28.62;100.00
15382;BME280;7789;51.364;12.358;2023-08-17T14:44:52;100422.03;;;28.64;100.00
15382;BME280;7789;51.364;12.358;2023-08-17T14:49:58;100417.13;;;28.61;100.00
15382;BME280;7789;51.364;12.358;2023-08-17T14:55:05;100405.44;;;28.56;100.00
15382;BME280;7789;51.364;12.358;2023-08-17T15:00:23;100393.03;;;28.55;100.00
15382;BME280;7789;51.364;12.358;2023-08-17T15:05:35;100391.25;;;28.44;100.00
15382;BME280;7789;51.364;12.358;2023-08-17T15:10:39;100380.94;;;28.29;100.00
15382;BME280;7789;51.364;12.358;2023-08-17T15:15:46;100378.66;;;28.21;100.00
15382;BME280;7789;51.364;12.358;2023-08-17T15:20:51;100377.16;;;28.14;100.00
15382;BME280;7789;51.364;12.358;2023-08-17T15:25:56;100379.88;;;28.02;100.00
15382;BME280;7789;51.364;12.358;2023-08-17T15:31:14;100386.91;;;27.92;100.00
15382;BME280;7789;51.364;12.358;2023-08-17T15:36:21;100393.69;;;27.83;100.00
15382;BME280;7789;51.364;12.358;2023-08-17T15:41:32;100387.28;;;27.72;100.00
15382;BME280;7789;51.364;12.358;2023-08-17T15:46:38;100388.44;;;27.65;100.00
15382;BME280;7789;51.364;12.358;2023-08-17T15:51:45;100388.44;;;27.53;100.00
15382;BME280;7789;51.364;12.358;2023-08-17T15:56:50;100394.41;;;27.44;100.00
15382;BME280;7789;51.364;12.358;2023-08-17T16:02:14;100394.28;;;27.39;100.00
15382;BME280;7789;51.364;12.358;2023-08-17T16:07:18;100389.25;;;27.31;100.00
15382;BME280;7789;51.364;12.358;2023-08-17T16:12:23;100383.63;;;27.21;100.00
15382;BME280;7789;51.364;12.358;2023-08-17T16:17:30;100377.56;;;27.14;100.00
15382;BME280;7789;51.364;12.358;2023-08-17T16:22:38;100377.06;;;27.05;100.00
15382;BME280;7789;51.364;12.358;2023-08-17T16:27:43;100366.41;;;26.99;100.00
15382;BME280;7789;51.364;12.358;2023-08-17T16:32:57;100361.63;;;26.89;100.00
15382;BME280;7789;51.364;12.358;2023-08-17T16:38:02;100364.66;;;26.81;100.00
15382;BME280;7789;51.364;12.358;2023-08-17T16:43:08;100362.19;;;26.80;100.00
15382;BME280;7789;51.364;12.358;2023-08-17T16:48:15;100376.53;;;26.74;100.00
15382;BME280;7789;51.364;12.358;2023-08-17T16:53:25;100396.22;;;26.68;100.00
15382;BME280;7789;51.364;12.358;2023-08-17T16:58:30;100411.34;;;26.63;100.00
15382;BME280;7789;51.364;12.358;2023-08-17T17:03:38;100392.44;;;26.58;100.00
15382;BME280;7789;51.364;12.358;2023-08-17T17:08:42;100403.50;;;26.50;100.00
15382;BME280;7789;51.364;12.358;2023-08-17T17:14:05;100422.09;;;26.45;100.00
15382;BME280;7789;51.364;12.358;2023-08-17T17:19:21;100417.19;;;26.42;100.00
15382;BME280;7789;51.364;12.358;2023-08-17T17:24:38;100425.69;;;26.39;100.00
15382;BME280;7789;51.364;12.358;2023-08-17T17:29:47;100421.00;;;26.34;100.00
15382;BME280;7789;51.364;12.358;2023-08-17T17:35:06;100405.00;;;26.28;100.00
15382;BME280;7789;51.364;12.358;2023-08-17T17:40:13;100397.19;;;26.26;100.00
15382;BME280;7789;51.364;12.358;2023-08-17T17:45:29;100378.88;;;26.23;100.00
15382;BME280;7789;51.364;12.358;2023-08-17T17:50:40;100383.72;;;26.15;100.00
15382;BME280;7789;51.364;12.358;2023-08-17T17:55:46;100384.41;;;26.10;100.00
15382;BME280;7789;51.364;12.358;2023-08-17T18:00:52;100398.47;;;26.06;100.00
15382;BME280;7789;51.364;12.358;2023-08-17T18:06:01;100422.59;;;26.06;100.00
15382;BME280;7789;51.364;12.358;2023-08-17T18:11:11;100442.25;;;26.00;100.00
15382;BME280;7789;51.364;12.358;2023-08-17T18:16:27;100460.03;;;25.94;100.00
15382;BME280;7789;51.364;12.358;2023-08-17T18:21:36;100469.13;;;25.93;100.00
15382;BME280;7789;51.364;12.358;2023-08-17T18:26:42;100482.97;;;25.90;100.00
15382;BME280;7789;51.364;12.358;2023-08-17T18:31:49;100482.59;;;25.87;100.00
15382;BME280;7789;51.364;12.358;2023-08-17T18:37:03;100488.94;;;25.68;100.00
15382;BME280;7789;51.364;12.358;2023-08-17T18:42:39;100507.75;;;25.30;100.00
15382;BME280;7789;51.364;12.358;2023-08-17T18:47:44;100520.22;;;25.12;100.00
15382;BME280;7789;51.364;12.358;2023-08-17T18:52:59;100535.94;;;24.95;100.00
15382;BME280;7789;51.364;12.358;2023-08-17T18:58:06;100530.66;;;24.82;100.00
15382;BME280;7789;51.364;12.358;2023-08-17T19:03:15;100549.25;;;24.65;100.00
15382;BME280;7789;51.364;12.358;2023-08-17T19:08:23;100557.94;;;24.47;100.00
15382;BME280;7789;51.364;12.358;2023-08-17T19:13:28;100574.84;;;24.22;100.00
15382;BME280;7789;51.364;12.358;2023-08-17T19:18:35;100541.13;;;23.82;100.00
15382;BME280;7789;51.364;12.358;2023-08-17T19:23:56;100520.63;;;23.50;100.00
15382;BME280;7789;51.364;12.358;2023-08-17T19:29:08;100502.31;;;23.27;100.00
15382;BME280;7789;51.364;12.358;2023-08-17T19:34:17;100494.31;;;23.27;100.00
15382;BME280;7789;51.364;12.358;2023-08-17T19:39:35;100479.03;;;22.89;100.00
15382;BME280;7789;51.364;12.358;2023-08-17T19:44:39;100453.56;;;22.73;100.00
15382;BME280;7789;51.364;12.358;2023-08-17T19:49:43;100421.53;;;22.67;100.00
15382;BME280;7789;51.364;12.358;2023-08-17T19:54:49;100397.53;;;22.61;100.00
15382;BME280;7789;51.364;12.358;2023-08-17T19:59:56;100386.44;;;22.57;100.00
15382;BME280;7789;51.364;12.358;2023-08-17T20:05:23;100393.63;;;22.63;100.00
15382;BME280;7789;51.364;12.358;2023-08-17T20:10:32;100400.00;;;22.68;100.00
15382;BME280;7789;51.364;12.358;2023-08-17T20:15:36;100402.25;;;22.65;100.00
15382;BME280;7789;51.364;12.358;2023-08-17T20:20:52;100407.78;;;22.64;100.00
15382;BME280;7789;51.364;12.358;2023-08-17T20:26:06;100414.16;;;22.63;100.00
15382;BME280;7789;51.364;12.358;2023-08-17T20:31:20;100410.25;;;22.65;100.00
15382;BME280;7789;51.364;12.358;2023-08-17T20:36:26;100405.13;;;22.70;100.00
15382;BME280;7789;51.364;12.358;2023-08-17T20:41:33;100415.19;;;22.74;100.00
15382;BME280;7789;51.364;12.358;2023-08-17T20:46:49;100408.03;;;22.81;100.00
15382;BME280;7789;51.364;12.358;2023-08-17T20:51:54;100412.75;;;22.86;100.00
15382;BME280;7789;51.364;12.358;2023-08-17T20:57:34;100413.19;;;22.89;100.00
15382;BME280;7789;51.364;12.358;2023-08-17T21:02:43;100425.88;;;22.87;100.00
15382;BME280;7789;51.364;12.358;2023-08-17T21:07:47;100436.34;;;22.89;100.00
15382;BME280;7789;51.364;12.358;2023-08-17T21:12:52;100452.78;;;22.92;100.00
15382;BME280;7789;51.364;12.358;2023-08-17T21:17:56;100474.31;;;22.91;100.00
15382;BME280;7789;51.364;12.358;2023-08-17T21:23:04;100477.19;;;22.89;100.00
15382;BME280;7789;51.364;12.358;2023-08-17T21:28:09;100486.19;;;22.88;100.00
15382;BME280;7789;51.364;12.358;2023-08-17T21:33:15;100505.06;;;22.87;100.00
15382;BME280;7789;51.364;12.358;2023-08-17T21:38:21;100516.94;;;22.84;100.00
15382;BME280;7789;51.364;12.358;2023-08-17T21:43:27;100522.06;;;22.79;100.00
15382;BME280;7789;51.364;12.358;2023-08-17T21:48:35;100517.56;;;22.73;100.00
15382;BME280;7789;51.364;12.358;2023-08-17T21:53:52;100523.66;;;22.67;100.00
15382;BME280;7789;51.364;12.358;2023-08-17T21:59:02;100517.94;;;22.64;100.00
15382;BME280;7789;51.364;12.358;2023-08-17T22:04:07;100529.81;;;22.62;100.00
15382;BME280;7789;51.364;12.358;2023-08-17T22:09:19;100535.53;;;22.59;100.00
15382;BME280;7789;51.364;12.358;2023-08-17T22:14:39;100526.06;;;22.56;100.00
15382;BME280;7789;51.364;12.358;2023-08-17T22:19:45;100512.53;;;22.51;100.00
15382;BME280;7789;51.364;12.358;2023-08-17T22:24:49;100510.06;;;22.50;100.00
15382;BME280;7789;51.364;12.358;2023-08-17T22:30:00;100503.47;;;22.46;100.00
15382;BME280;7789;51.364;12.358;2023-08-17T22:35:10;100492.59;;;22.41;100.00
15382;BME280;7789;51.364;12.358;2023-08-17T22:40:15;100480.63;;;22.37;100.00
15382;BME280;7789;51.364;12.358;2023-08-17T22:45:24;100488.41;;;22.32;100.00
15382;BME280;7789;51.364;12.358;2023-08-17T22:50:36;100483.47;;;22.29;100.00
15382;BME280;7789;51.364;12.358;2023-08-17T22:55:40;100479.19;;;22.28;100.00
15382;BME280;7789;51.364;12.358;2023-08-17T23:00:47;100485.94;;;22.24;100.00
15382;BME280;7789;51.364;12.358;2023-08-17T23:05:51;100469.31;;;22.22;100.00
15382;BME280;7789;51.364;12.358;2023-08-17T23:11:00;100483.44;;;22.22;100.00
15382;BME280;7789;51.364;12.358;2023-08-17T23:16:12;100478.50;;;22.19;100.00
15382;BME280;7789;51.364;12.358;2023-08-17T23:21:17;100471.72;;;22.17;100.00
15382;BME280;7789;51.364;12.358;2023-08-17T23:26:26;100478.28;;;22.14;100.00
15382;BME280;7789;51.364;12.358;2023-08-17T23:31:33;100466.38;;;22.10;100.00
15382;BME280;7789;51.364;12.358;2023-08-17T23:36:40;100468.41;;;22.08;100.00
15382;BME280;7789;51.364;12.358;2023-08-17T23:41:45;100462.84;;;22.03;100.00
15382;BME280;7789;51.364;12.358;2023-08-17T23:46:54;100462.63;;;21.98;100.00
15382;BME280;7789;51.364;12.358;2023-08-17T23:52:01;100469.34;;;21.94;100.00
15382;BME280;7789;51.364;12.358;2023-08-17T23:57:09;100467.06;;;21.91;100.00
